createdAt,value
2022-09-03T00:00:42.979Z,0
2022-09-03T00:01:59.271Z,0
2022-09-03T00:03:15.585Z,0
2022-09-03T00:04:31.857Z,0
2022-09-03T00:05:48.186Z,0
2022-09-03T00:07:04.438Z,0
2022-09-03T00:08:20.731Z,0
2022-09-03T00:09:37.032Z,0
2022-09-03T00:10:53.327Z,0
2022-09-03T00:12:09.619Z,0
2022-09-03T00:13:25.928Z,0
2022-09-03T00:14:42.204Z,0
2022-09-03T00:15:58.490Z,0
2022-09-03T00:17:13.807Z,0
2022-09-03T00:18:30.093Z,0
2022-09-03T00:19:46.414Z,0
2022-09-03T00:21:02.709Z,0
2022-09-03T00:22:18.981Z,0
2022-09-03T00:23:35.283Z,0
2022-09-03T00:24:51.559Z,0
2022-09-03T00:26:07.843Z,0
2022-09-03T00:27:24.134Z,0
2022-09-03T00:28:40.468Z,0
2022-09-03T00:29:56.734Z,0
2022-09-03T00:31:13.036Z,0
2022-09-03T00:32:29.309Z,0
2022-09-03T00:33:44.613Z,0
2022-09-03T00:35:00.908Z,0
2022-09-03T00:36:17.198Z,0
2022-09-03T00:37:33.489Z,0
2022-09-03T00:38:49.793Z,0
2022-09-03T00:40:06.079Z,0
2022-09-03T00:41:22.404Z,0
2022-09-03T00:42:38.665Z,0
2022-09-03T00:43:54.957Z,0
2022-09-03T00:45:11.252Z,0
2022-09-03T00:46:27.571Z,0
2022-09-03T00:47:43.834Z,0
2022-09-03T00:49:00.154Z,0
2022-09-03T00:50:15.461Z,0
2022-09-03T00:51:31.000Z,0
2022-09-03T00:52:48.022Z,0
2022-09-03T00:54:04.349Z,0
2022-09-03T00:55:20.598Z,0
2022-09-03T00:56:36.905Z,0
2022-09-03T00:57:52.235Z,0
2022-09-03T00:59:08.527Z,0
2022-09-03T01:00:24.792Z,0
2022-09-03T01:01:41.082Z,0
2022-09-03T01:02:57.389Z,0
2022-09-03T01:04:13.672Z,0
2022-09-03T01:05:29.961Z,0
2022-09-03T01:06:46.254Z,0
2022-09-03T01:08:02.558Z,0
2022-09-03T01:09:18.836Z,0
2022-09-03T01:10:35.137Z,0
2022-09-03T01:11:51.421Z,0
2022-09-03T01:13:07.719Z,0
2022-09-03T01:14:23.022Z,0
2022-09-03T01:15:39.315Z,0
2022-09-03T01:16:55.609Z,0
2022-09-03T01:18:11.905Z,0
2022-09-03T01:19:28.199Z,0
2022-09-03T01:20:44.515Z,0
2022-09-03T01:22:00.806Z,0
2022-09-03T01:23:17.075Z,0
2022-09-03T01:24:33.361Z,0
2022-09-03T01:25:49.663Z,0
2022-09-03T01:27:05.971Z,0
2022-09-03T01:28:22.248Z,0
2022-09-03T01:29:38.546Z,0
2022-09-03T01:30:53.853Z,0
2022-09-03T01:32:10.154Z,0
2022-09-03T01:33:26.462Z,0
2022-09-03T01:34:42.758Z,0
2022-09-03T01:35:59.016Z,0
2022-09-03T01:37:15.324Z,0
2022-09-03T01:38:31.621Z,0
2022-09-03T01:39:47.892Z,0
2022-09-03T01:41:04.174Z,0
2022-09-03T01:42:20.480Z,0
2022-09-03T01:43:36.759Z,0
2022-09-03T01:44:53.061Z,0
2022-09-03T01:46:09.371Z,0
2022-09-03T01:47:24.657Z,0
2022-09-03T01:48:40.962Z,0
2022-09-03T01:49:57.250Z,0
2022-09-03T01:51:13.528Z,0
2022-09-03T01:52:29.853Z,0
2022-09-03T01:53:46.120Z,0
2022-09-03T01:55:02.419Z,0
2022-09-03T01:56:18.696Z,0
2022-09-03T01:57:34.990Z,0
2022-09-03T01:58:51.312Z,0
2022-09-03T02:00:07.604Z,0
2022-09-03T02:01:23.882Z,0
2022-09-03T02:02:40.206Z,0
2022-09-03T02:03:56.469Z,0
2022-09-03T02:05:11.774Z,0
2022-09-03T02:06:28.085Z,0
2022-09-03T02:07:44.363Z,0
2022-09-03T02:09:00.662Z,0
2022-09-03T02:10:16.931Z,0
2022-09-03T02:11:33.235Z,0
2022-09-03T02:12:49.550Z,0
2022-09-03T02:14:05.814Z,0
2022-09-03T02:15:22.104Z,0
2022-09-03T02:16:38.000Z,0
2022-09-03T02:17:54.684Z,0
2022-09-03T02:19:10.987Z,0
2022-09-03T02:20:27.278Z,0
2022-09-03T02:21:42.581Z,0
2022-09-03T02:22:58.877Z,0
2022-09-03T02:24:15.160Z,0
2022-09-03T02:25:31.482Z,0
2022-09-03T02:26:47.750Z,0
2022-09-03T02:28:04.053Z,0
2022-09-03T02:29:20.371Z,0
2022-09-03T02:30:36.652Z,0
2022-09-03T02:31:52.946Z,0
2022-09-03T02:34:25.507Z,0
2022-09-03T02:35:41.821Z,0
2022-09-03T02:36:58.087Z,0
2022-09-03T02:38:13.396Z,0
2022-09-03T02:39:29.689Z,0
2022-09-03T02:40:45.981Z,0
2022-09-03T02:42:02.269Z,0
2022-09-03T02:43:18.569Z,0
2022-09-03T02:44:34.862Z,0
2022-09-03T02:45:51.185Z,0
2022-09-03T02:47:07.440Z,0
2022-09-03T02:48:23.761Z,0
2022-09-03T02:49:40.032Z,0
2022-09-03T02:50:56.316Z,0
2022-09-03T02:52:12.645Z,0
2022-09-03T02:53:28.934Z,0
2022-09-03T02:54:44.217Z,0
2022-09-03T02:56:00.518Z,0
2022-09-03T02:57:16.808Z,0
2022-09-03T02:58:33.095Z,0
2022-09-03T02:59:49.376Z,0
2022-09-03T03:01:05.697Z,0
2022-09-03T03:02:21.968Z,0
2022-09-03T03:03:38.286Z,0
2022-09-03T03:04:54.553Z,0
2022-09-03T03:06:10.839Z,0
2022-09-03T03:07:27.162Z,0
2022-09-03T03:08:43.430Z,0
2022-09-03T03:09:59.732Z,0
2022-09-03T03:11:15.023Z,0
2022-09-03T03:12:31.322Z,0
2022-09-03T03:13:47.638Z,0
2022-09-03T03:15:03.930Z,0
2022-09-03T03:16:20.202Z,0
2022-09-03T03:17:36.490Z,0
2022-09-03T03:18:52.787Z,0
2022-09-03T03:20:09.074Z,0
2022-09-03T03:21:25.379Z,0
2022-09-03T03:22:41.657Z,0
2022-09-03T03:23:57.956Z,0
2022-09-03T03:25:14.262Z,0
2022-09-03T03:26:30.543Z,0
2022-09-03T03:27:45.861Z,0
2022-09-03T03:29:02.140Z,0
2022-09-03T03:30:18.441Z,0
2022-09-03T03:31:34.757Z,0
2022-09-03T03:32:51.018Z,0
2022-09-03T03:34:07.347Z,0
2022-09-03T03:35:23.602Z,0
2022-09-03T03:36:39.901Z,0
2022-09-03T03:37:56.195Z,0
2022-09-03T03:39:12.510Z,0
2022-09-03T03:40:28.772Z,0
2022-09-03T03:41:45.069Z,0
2022-09-03T03:43:01.381Z,0
2022-09-03T03:44:16.694Z,0
2022-09-03T03:45:32.956Z,0
2022-09-03T03:46:49.280Z,0
2022-09-03T03:48:05.554Z,0
2022-09-03T03:49:21.865Z,0
2022-09-03T03:50:38.129Z,0
2022-09-03T03:51:54.426Z,0
2022-09-03T03:53:10.721Z,0
2022-09-03T03:54:27.033Z,0
2022-09-03T03:55:43.249Z,1
2022-09-03T03:56:59.540Z,0
2022-09-03T03:58:15.838Z,0
2022-09-03T03:59:32.094Z,1
2022-09-03T04:00:47.392Z,0
2022-09-03T04:02:03.693Z,0
2022-09-03T04:03:19.943Z,2
2022-09-03T04:04:36.176Z,1
2022-09-03T04:05:52.477Z,0
2022-09-03T04:07:08.793Z,0
2022-09-03T04:08:25.014Z,5
2022-09-03T04:09:41.274Z,4
2022-09-03T04:10:57.498Z,1
2022-09-03T04:12:13.760Z,1
2022-09-03T04:13:29.991Z,2
2022-09-03T04:14:46.209Z,5
2022-09-03T04:16:02.449Z,3
2022-09-03T04:17:17.730Z,3
2022-09-03T04:18:33.978Z,3
2022-09-03T04:19:50.179Z,6
2022-09-03T04:21:06.441Z,6
2022-09-03T04:22:22.655Z,10
2022-09-03T04:23:38.893Z,9
2022-09-03T04:24:55.152Z,11
2022-09-03T04:26:11.364Z,17
2022-09-03T04:27:27.599Z,27
2022-09-03T04:28:43.850Z,24
2022-09-03T04:30:00.000Z,27
2022-09-03T04:31:16.350Z,27
2022-09-03T04:32:32.555Z,32
2022-09-03T04:33:47.817Z,35
2022-09-03T04:35:04.054Z,36
2022-09-03T04:36:20.299Z,42
2022-09-03T04:37:36.532Z,41
2022-09-03T04:38:52.772Z,41
2022-09-03T04:40:09.018Z,46
2022-09-03T04:41:25.281Z,55
2022-09-03T04:42:41.496Z,62
2022-09-03T04:43:57.733Z,70
2022-09-03T04:45:13.998Z,73
2022-09-03T04:46:30.200Z,79
2022-09-03T04:47:46.478Z,88
2022-09-03T04:49:02.692Z,92
2022-09-03T04:50:17.948Z,102
2022-09-03T04:51:34.171Z,112
2022-09-03T04:52:50.412Z,115
2022-09-03T04:54:06.654Z,125
2022-09-03T04:55:22.895Z,133
2022-09-03T04:56:39.127Z,146
2022-09-03T04:57:55.375Z,154
2022-09-03T04:59:11.602Z,153
2022-09-03T05:00:27.874Z,144
2022-09-03T05:01:44.081Z,151
2022-09-03T05:03:00.325Z,148
2022-09-03T05:04:16.561Z,151
2022-09-03T05:05:32.807Z,154
2022-09-03T05:06:48.066Z,155
2022-09-03T05:08:04.324Z,157
2022-09-03T05:09:20.539Z,167
2022-09-03T05:10:36.778Z,177
2022-09-03T05:11:53.024Z,178
2022-09-03T05:13:08.303Z,189
2022-09-03T05:14:24.506Z,193
2022-09-03T05:15:40.770Z,198
2022-09-03T05:16:56.987Z,208
2022-09-03T05:18:13.227Z,220
2022-09-03T05:19:29.467Z,228
2022-09-03T05:20:45.739Z,237
2022-09-03T05:22:01.935Z,242
2022-09-03T05:23:18.211Z,243
2022-09-03T05:24:34.441Z,241
2022-09-03T05:25:50.678Z,242
2022-09-03T05:27:06.890Z,251
2022-09-03T05:28:23.134Z,255
2022-09-03T05:29:38.401Z,261
2022-09-03T05:30:54.621Z,267
2022-09-03T05:32:10.877Z,273
2022-09-03T05:33:27.128Z,278
2022-09-03T05:34:43.351Z,284
2022-09-03T05:35:59.603Z,287
2022-09-03T05:37:15.828Z,291
2022-09-03T05:38:32.082Z,286
2022-09-03T05:39:48.296Z,291
2022-09-03T05:41:04.548Z,304
2022-09-03T05:42:20.778Z,327
2022-09-03T05:43:37.016Z,336
2022-09-03T05:44:53.245Z,338
2022-09-03T05:46:08.500Z,337
2022-09-03T05:47:24.752Z,332
2022-09-03T05:48:41.009Z,326
2022-09-03T05:49:57.250Z,336
2022-09-03T05:51:13.457Z,351
2022-09-03T05:52:29.693Z,365
2022-09-03T05:53:45.947Z,386
2022-09-03T05:55:02.196Z,403
2022-09-03T05:56:18.426Z,404
2022-09-03T05:57:34.646Z,391
2022-09-03T05:58:50.926Z,397
2022-09-03T06:00:07.138Z,408
2022-09-03T06:01:23.403Z,419
2022-09-03T06:02:38.628Z,421
2022-09-03T06:03:54.888Z,426
2022-09-03T06:05:11.123Z,421
2022-09-03T06:06:27.331Z,424
2022-09-03T06:07:43.572Z,429
2022-09-03T06:08:59.817Z,430
2022-09-03T06:10:16.077Z,428
2022-09-03T06:11:32.295Z,428
2022-09-03T06:12:48.539Z,428
2022-09-03T06:14:04.801Z,429
2022-09-03T06:15:21.004Z,430
2022-09-03T06:16:37.275Z,435
2022-09-03T06:17:53.479Z,436
2022-09-03T06:19:08.749Z,438
2022-09-03T06:20:24.976Z,443
2022-09-03T06:21:41.219Z,448
2022-09-03T06:22:57.463Z,448
2022-09-03T06:24:13.720Z,448
2022-09-03T06:25:29.930Z,448
2022-09-03T06:26:46.199Z,444
2022-09-03T06:28:02.408Z,443
2022-09-03T06:29:18.643Z,441
2022-09-03T06:30:34.882Z,433
2022-09-03T06:31:51.121Z,428
2022-09-03T06:33:07.356Z,425
2022-09-03T06:34:23.609Z,425
2022-09-03T06:35:38.855Z,428
2022-09-03T06:36:55.116Z,423
2022-09-03T06:38:11.335Z,421
2022-09-03T06:39:27.566Z,423
2022-09-03T06:40:43.843Z,424
2022-09-03T06:42:00.077Z,418
2022-09-03T06:43:16.285Z,425
2022-09-03T06:44:32.529Z,416
2022-09-03T06:45:48.760Z,413
2022-09-03T06:47:05.003Z,415
2022-09-03T06:48:21.272Z,413
2022-09-03T06:49:37.485Z,409
2022-09-03T06:50:53.725Z,407
2022-09-03T06:52:08.993Z,415
2022-09-03T06:53:25.212Z,410
2022-09-03T06:54:41.478Z,415
2022-09-03T06:55:57.683Z,415
2022-09-03T06:57:13.964Z,418
2022-09-03T06:58:30.156Z,421
2022-09-03T06:59:46.394Z,417
2022-09-03T07:01:02.637Z,421
2022-09-03T07:02:18.909Z,424
2022-09-03T07:03:35.110Z,418
2022-09-03T07:04:51.353Z,425
2022-09-03T07:06:07.601Z,414
2022-09-03T07:07:23.831Z,417
2022-09-03T07:08:39.096Z,432
2022-09-03T07:09:55.358Z,422
2022-09-03T07:11:11.560Z,424
2022-09-03T07:12:27.806Z,435
2022-09-03T07:13:44.074Z,428
2022-09-03T07:15:00.310Z,428
2022-09-03T07:16:16.531Z,434
2022-09-03T07:17:32.749Z,425
2022-09-03T07:18:48.999Z,438
2022-09-03T07:20:05.240Z,432
2022-09-03T07:21:21.479Z,429
2022-09-03T07:22:37.712Z,431
2022-09-03T07:23:53.949Z,434
2022-09-03T07:25:09.230Z,439
2022-09-03T07:26:25.435Z,436
2022-09-03T07:27:41.703Z,441
2022-09-03T07:28:57.926Z,437
2022-09-03T07:30:14.180Z,440
2022-09-03T07:31:30.422Z,440
2022-09-03T07:32:46.669Z,444
2022-09-03T07:34:02.893Z,444
2022-09-03T07:35:19.140Z,445
2022-09-03T07:36:35.346Z,448
2022-09-03T07:37:51.591Z,449
2022-09-03T07:39:07.824Z,449
2022-09-03T07:40:24.097Z,443
2022-09-03T07:41:39.340Z,448
2022-09-03T07:42:55.587Z,449
2022-09-03T07:44:11.807Z,454
2022-09-03T07:45:28.029Z,455
2022-09-03T07:46:44.274Z,458
2022-09-03T07:48:00.505Z,453
2022-09-03T07:49:16.773Z,456
2022-09-03T07:50:32.999Z,457
2022-09-03T07:51:49.249Z,459
2022-09-03T07:53:05.463Z,463
2022-09-03T07:54:21.702Z,468
2022-09-03T07:55:37.966Z,462
2022-09-03T07:56:54.189Z,465
2022-09-03T07:58:09.430Z,466
2022-09-03T07:59:25.668Z,471
2022-09-03T08:00:41.918Z,470
2022-09-03T08:01:58.143Z,477
2022-09-03T08:03:14.415Z,475
2022-09-03T08:05:46.000Z,483
2022-09-03T08:07:03.114Z,476
2022-09-03T08:08:19.350Z,480
2022-09-03T08:09:35.584Z,481
2022-09-03T08:10:51.848Z,482
2022-09-03T08:12:08.050Z,477
2022-09-03T08:13:24.305Z,480
2022-09-03T08:14:39.548Z,481
2022-09-03T08:15:55.815Z,488
2022-09-03T08:17:12.024Z,489
2022-09-03T08:18:28.258Z,482
2022-09-03T08:19:44.505Z,488
2022-09-03T08:21:00.732Z,489
2022-09-03T08:22:16.979Z,499
2022-09-03T08:23:33.223Z,479
2022-09-03T08:24:49.455Z,503
2022-09-03T08:26:05.705Z,479
2022-09-03T08:27:21.933Z,480
2022-09-03T08:28:38.177Z,484
2022-09-03T08:29:54.411Z,483
2022-09-03T08:31:09.662Z,479
2022-09-03T08:32:25.912Z,484
2022-09-03T08:33:42.155Z,488
2022-09-03T08:34:58.379Z,486
2022-09-03T08:36:14.622Z,489
2022-09-03T08:37:30.876Z,482
2022-09-03T08:38:47.097Z,485
2022-09-03T08:40:03.339Z,491
2022-09-03T08:41:19.587Z,488
2022-09-03T08:42:35.815Z,493
2022-09-03T08:43:52.060Z,490
2022-09-03T08:45:08.294Z,494
2022-09-03T08:46:24.524Z,486
2022-09-03T08:47:39.804Z,488
2022-09-03T08:48:56.032Z,496
2022-09-03T08:50:12.262Z,496
2022-09-03T08:51:28.506Z,495
2022-09-03T08:52:44.741Z,490
2022-09-03T08:54:00.993Z,501
2022-09-03T08:55:17.227Z,493
2022-09-03T08:56:33.461Z,498
2022-09-03T08:57:49.694Z,496
2022-09-03T08:59:05.936Z,496
2022-09-03T09:00:22.186Z,499
2022-09-03T09:01:38.409Z,499
2022-09-03T09:02:54.655Z,503
2022-09-03T09:04:09.909Z,504
2022-09-03T09:05:26.157Z,508
2022-09-03T09:06:42.400Z,507
2022-09-03T09:07:58.633Z,505
2022-09-03T09:09:14.866Z,516
2022-09-03T09:10:31.119Z,515
2022-09-03T09:11:47.355Z,519
2022-09-03T09:13:03.599Z,520
2022-09-03T09:14:19.823Z,521
2022-09-03T09:15:36.077Z,522
2022-09-03T09:16:52.293Z,528
2022-09-03T09:18:08.548Z,524
2022-09-03T09:19:24.791Z,530
2022-09-03T09:20:40.052Z,524
2022-09-03T09:21:56.280Z,526
2022-09-03T09:23:12.517Z,534
2022-09-03T09:24:28.754Z,534
2022-09-03T09:25:45.001Z,533
2022-09-03T09:27:01.234Z,541
2022-09-03T09:28:16.492Z,542
2022-09-03T09:29:32.740Z,547
2022-09-03T09:30:48.984Z,570
2022-09-03T09:32:05.218Z,541
2022-09-03T09:33:21.449Z,547
2022-09-03T09:34:37.700Z,545
2022-09-03T09:35:53.932Z,554
2022-09-03T09:37:10.159Z,567
2022-09-03T09:38:26.405Z,565
2022-09-03T09:39:42.651Z,558
2022-09-03T09:40:58.889Z,571
2022-09-03T09:42:15.136Z,571
2022-09-03T09:43:31.368Z,571
2022-09-03T09:44:46.625Z,577
2022-09-03T09:46:02.871Z,577
2022-09-03T09:47:19.093Z,578
2022-09-03T09:48:35.348Z,587
2022-09-03T09:49:51.591Z,597
2022-09-03T09:51:07.836Z,602
2022-09-03T09:52:24.062Z,600
2022-09-03T09:53:40.310Z,615
2022-09-03T09:54:56.553Z,611
2022-09-03T09:56:12.788Z,617
2022-09-03T09:57:29.015Z,620
2022-09-03T09:58:45.261Z,623
2022-09-03T10:00:01.000Z,635
2022-09-03T10:01:16.762Z,645
2022-09-03T10:02:32.997Z,652
2022-09-03T10:03:49.255Z,626
2022-09-03T10:05:05.476Z,562
2022-09-03T10:06:21.730Z,864
2022-09-03T10:07:37.955Z,943
2022-09-03T10:08:54.212Z,970
2022-09-03T10:10:10.430Z,991
2022-09-03T10:11:26.693Z,917
2022-09-03T10:12:42.916Z,705
2022-09-03T10:13:59.156Z,1717
2022-09-03T10:15:15.398Z,2542
2022-09-03T10:16:31.644Z,2793
2022-09-03T10:17:46.899Z,2922
2022-09-03T10:19:03.123Z,2949
2022-09-03T10:20:19.380Z,3142
2022-09-03T10:21:35.601Z,3404
2022-09-03T10:22:51.841Z,3439
2022-09-03T10:24:08.083Z,3593
2022-09-03T10:25:24.329Z,3680
2022-09-03T10:26:40.566Z,3844
2022-09-03T10:27:56.812Z,3641
2022-09-03T10:29:13.053Z,3410
2022-09-03T10:30:29.287Z,3229
2022-09-03T10:31:45.522Z,3086
2022-09-03T10:33:01.758Z,3021
2022-09-03T10:34:17.014Z,3057
2022-09-03T10:35:33.248Z,3039
2022-09-03T10:36:49.483Z,3115
2022-09-03T10:38:05.722Z,3106
2022-09-03T10:39:21.964Z,3139
2022-09-03T10:40:38.195Z,3097
2022-09-03T10:41:54.435Z,3094
2022-09-03T10:43:10.683Z,3163
2022-09-03T10:44:26.907Z,3209
2022-09-03T10:45:43.163Z,3301
2022-09-03T10:46:59.393Z,3387
2022-09-03T10:48:15.619Z,3527
2022-09-03T10:49:31.857Z,3559
2022-09-03T10:50:47.122Z,3524
2022-09-03T10:52:03.351Z,4620
2022-09-03T10:53:19.589Z,1831
2022-09-03T10:54:35.834Z,3646
2022-09-03T10:55:52.070Z,3549
2022-09-03T10:57:08.320Z,3620
2022-09-03T10:58:24.551Z,3615
2022-09-03T10:59:40.781Z,3602
2022-09-03T11:00:57.022Z,3553
2022-09-03T11:02:13.256Z,3493
2022-09-03T11:03:29.506Z,3625
2022-09-03T11:04:45.734Z,3828
2022-09-03T11:06:01.977Z,3817
2022-09-03T11:07:17.232Z,3805
2022-09-03T11:08:33.479Z,3813
2022-09-03T11:09:49.713Z,3834
2022-09-03T11:11:05.942Z,3966
2022-09-03T11:12:22.178Z,4035
2022-09-03T11:13:38.416Z,4295
2022-09-03T11:14:54.000Z,4283
2022-09-03T11:16:10.894Z,4123
2022-09-03T11:17:27.130Z,4191
2022-09-03T11:18:43.375Z,4204
2022-09-03T11:19:59.625Z,4190
2022-09-03T11:21:15.853Z,4410
2022-09-03T11:22:32.094Z,4020
2022-09-03T11:23:47.348Z,4440
2022-09-03T11:25:03.587Z,4438
2022-09-03T11:26:19.823Z,4486
2022-09-03T11:27:36.057Z,4534
2022-09-03T11:28:52.302Z,4646
2022-09-03T11:30:08.540Z,4654
2022-09-03T11:31:24.772Z,4848
2022-09-03T11:32:41.015Z,6555
2022-09-03T11:33:57.260Z,3159
2022-09-03T11:35:13.499Z,5062
2022-09-03T11:36:29.729Z,5013
2022-09-03T11:37:45.958Z,5282
2022-09-03T11:39:02.208Z,5091
2022-09-03T11:40:17.469Z,5396
2022-09-03T11:41:33.692Z,5487
2022-09-03T11:42:49.938Z,5475
2022-09-03T11:44:06.176Z,5438
2022-09-03T11:45:22.410Z,5427
2022-09-03T11:46:38.649Z,5575
2022-09-03T11:47:54.887Z,5591
2022-09-03T11:49:11.137Z,5586
2022-09-03T11:50:27.379Z,5646
2022-09-03T11:51:43.616Z,5615
2022-09-03T11:52:59.848Z,5800
2022-09-03T11:54:16.082Z,5752
2022-09-03T11:55:32.321Z,5761
2022-09-03T11:56:47.570Z,5902
2022-09-03T11:58:03.813Z,6143
2022-09-03T11:59:20.054Z,6057
2022-09-03T12:00:36.301Z,7017
2022-09-03T12:01:52.540Z,4899
2022-09-03T12:03:08.777Z,6195
2022-09-03T12:04:25.023Z,6205
2022-09-03T12:05:41.250Z,6192
2022-09-03T12:06:57.494Z,6249
2022-09-03T12:08:13.732Z,6212
2022-09-03T12:09:29.965Z,6172
2022-09-03T12:10:46.208Z,6104
2022-09-03T12:12:02.437Z,6328
2022-09-03T12:13:17.700Z,6289
2022-09-03T12:14:33.931Z,6353
2022-09-03T12:15:50.178Z,6372
2022-09-03T12:17:06.409Z,6342
2022-09-03T12:18:22.654Z,6429
2022-09-03T12:19:38.893Z,6487
2022-09-03T12:20:55.139Z,6486
2022-09-03T12:22:11.377Z,6560
2022-09-03T12:23:27.612Z,6565
2022-09-03T12:24:43.845Z,6657
2022-09-03T12:26:00.085Z,6787
2022-09-03T12:27:16.329Z,6642
2022-09-03T12:28:32.570Z,6617
2022-09-03T12:29:47.817Z,6708
2022-09-03T12:31:04.062Z,6877
2022-09-03T12:32:20.299Z,6754
2022-09-03T12:33:36.552Z,6997
2022-09-03T12:34:52.775Z,6906
2022-09-03T12:36:09.031Z,7122
2022-09-03T12:37:25.270Z,6658
2022-09-03T12:38:41.490Z,6843
2022-09-03T12:39:57.733Z,6981
2022-09-03T12:41:13.970Z,6991
2022-09-03T12:42:30.224Z,7039
2022-09-03T12:43:46.455Z,7015
2022-09-03T12:45:02.700Z,6981
2022-09-03T12:46:17.947Z,7189
2022-09-03T12:47:34.192Z,7557
2022-09-03T12:48:50.427Z,6523
2022-09-03T12:50:06.662Z,7083
2022-09-03T12:51:22.907Z,7256
2022-09-03T12:52:39.143Z,7282
2022-09-03T12:53:55.382Z,7423
2022-09-03T12:55:11.627Z,7342
2022-09-03T12:56:27.874Z,6892
2022-09-03T12:57:44.104Z,7135
2022-09-03T12:59:00.354Z,7424
2022-09-03T13:00:16.589Z,7431
2022-09-03T13:01:32.817Z,7414
2022-09-03T13:02:48.087Z,7340
2022-09-03T13:04:04.325Z,7532
2022-09-03T13:05:20.569Z,8774
2022-09-03T13:06:36.809Z,5781
2022-09-03T13:07:53.036Z,7501
2022-09-03T13:09:09.290Z,7390
2022-09-03T13:10:25.528Z,7887
2022-09-03T13:11:41.756Z,7178
2022-09-03T13:12:57.991Z,7425
2022-09-03T13:14:14.250Z,7661
2022-09-03T13:15:30.477Z,7905
2022-09-03T13:16:46.726Z,7521
2022-09-03T13:18:02.961Z,7673
2022-09-03T13:19:18.226Z,7424
2022-09-03T13:20:34.447Z,7857
2022-09-03T13:21:50.701Z,7568
2022-09-03T13:23:06.937Z,7847
2022-09-03T13:24:23.166Z,7469
2022-09-03T13:25:39.409Z,7729
2022-09-03T13:26:55.650Z,7661
2022-09-03T13:28:11.893Z,7766
2022-09-03T13:29:28.134Z,7620
2022-09-03T13:30:44.377Z,7788
2022-09-03T13:32:00.617Z,7830
2022-09-03T13:33:16.000Z,7863
2022-09-03T13:34:33.085Z,7329
2022-09-03T13:35:48.342Z,7039
2022-09-03T13:37:04.582Z,7709
2022-09-03T13:38:20.823Z,7839
2022-09-03T13:39:37.067Z,7805
2022-09-03T13:40:53.311Z,7841
2022-09-03T13:42:09.542Z,7750
2022-09-03T13:43:24.804Z,7854
2022-09-03T13:44:41.050Z,7901
2022-09-03T13:45:57.284Z,7860
2022-09-03T13:47:13.525Z,7897
2022-09-03T13:48:29.768Z,7883
2022-09-03T13:49:46.005Z,7847
2022-09-03T13:51:02.237Z,7818
2022-09-03T13:52:18.490Z,7826
2022-09-03T13:53:34.728Z,7838
2022-09-03T13:54:50.959Z,7814
2022-09-03T13:56:07.196Z,7737
2022-09-03T13:57:23.437Z,7652
2022-09-03T13:58:39.682Z,7846
2022-09-03T13:59:54.938Z,7974
2022-09-03T14:01:11.177Z,7648
2022-09-03T14:02:27.427Z,7274
2022-09-03T14:03:43.664Z,7630
2022-09-03T14:04:59.897Z,8167
2022-09-03T14:06:16.144Z,7241
2022-09-03T14:07:32.378Z,7560
2022-09-03T14:08:48.611Z,7536
2022-09-03T14:10:04.860Z,7805
2022-09-03T14:11:21.096Z,7740
2022-09-03T14:12:37.339Z,7858
2022-09-03T14:13:53.570Z,7934
2022-09-03T14:15:09.817Z,7216
2022-09-03T14:16:25.070Z,7447
2022-09-03T14:17:41.306Z,7751
2022-09-03T14:18:57.545Z,7731
2022-09-03T14:20:13.786Z,7745
2022-09-03T14:21:30.031Z,7930
2022-09-03T14:22:46.275Z,7884
2022-09-03T14:24:02.507Z,7718
2022-09-03T14:25:18.748Z,7640
2022-09-03T14:26:34.993Z,7775
2022-09-03T14:27:51.226Z,7692
2022-09-03T14:29:07.483Z,7722
2022-09-03T14:30:23.707Z,7758
2022-09-03T14:31:39.958Z,7836
2022-09-03T14:32:55.201Z,7868
2022-09-03T14:34:11.445Z,7814
2022-09-03T14:35:27.684Z,7771
2022-09-03T14:36:43.925Z,8510
2022-09-03T14:38:00.175Z,9052
2022-09-03T14:39:16.403Z,7834
2022-09-03T14:40:32.652Z,6036
2022-09-03T14:41:48.887Z,4534
2022-09-03T14:43:05.121Z,7811
2022-09-03T14:44:21.366Z,4931
2022-09-03T14:45:37.608Z,10385
2022-09-03T14:46:53.853Z,7048
2022-09-03T14:48:10.079Z,3028
2022-09-03T14:49:25.341Z,2523
2022-09-03T14:50:41.579Z,7232
2022-09-03T14:51:57.828Z,8091
2022-09-03T14:53:14.054Z,8001
2022-09-03T14:54:30.301Z,8057
2022-09-03T14:55:46.529Z,8072
2022-09-03T14:57:02.773Z,7734
2022-09-03T14:58:19.024Z,7917
2022-09-03T14:59:35.255Z,8024
2022-09-03T15:00:51.500Z,8238
2022-09-03T15:02:07.749Z,8174
2022-09-03T15:03:23.975Z,8105
2022-09-03T15:04:40.212Z,7969
2022-09-03T15:05:56.453Z,8087
2022-09-03T15:07:11.709Z,8155
2022-09-03T15:08:27.953Z,7837
2022-09-03T15:09:44.184Z,8017
2022-09-03T15:11:00.431Z,7963
2022-09-03T15:12:16.665Z,7946
2022-09-03T15:13:32.903Z,7482
2022-09-03T15:14:49.144Z,7754
2022-09-03T15:16:05.394Z,7793
2022-09-03T15:17:21.624Z,9086
2022-09-03T15:18:37.865Z,8157
2022-09-03T15:19:54.105Z,11477
2022-09-03T15:21:10.348Z,3978
2022-09-03T15:22:26.582Z,6435
2022-09-03T15:23:41.845Z,2053
2022-09-03T15:24:58.079Z,861
2022-09-03T15:26:14.316Z,3727
2022-09-03T15:27:30.563Z,2849
2022-09-03T15:28:46.796Z,2166
2022-09-03T15:30:03.039Z,2833
2022-09-03T15:31:19.276Z,2370
2022-09-03T15:32:35.537Z,808
2022-09-03T15:33:51.759Z,1215
2022-09-03T15:35:08.004Z,5359
2022-09-03T15:36:24.231Z,1308
2022-09-03T15:37:40.482Z,1644
2022-09-03T15:38:56.710Z,3296
2022-09-03T15:40:11.972Z,7305
2022-09-03T15:41:28.212Z,6147
2022-09-03T15:42:44.455Z,5860
2022-09-03T15:44:00.704Z,2510
2022-09-03T15:45:16.938Z,7564
2022-09-03T15:46:33.172Z,8314
2022-09-03T15:47:49.404Z,5722
2022-09-03T15:49:05.649Z,7197
2022-09-03T15:50:21.890Z,7353
2022-09-03T15:51:38.126Z,6335
2022-09-03T15:52:54.000Z,10420
2022-09-03T15:54:10.622Z,3158
2022-09-03T15:55:26.859Z,3985
2022-09-03T15:56:42.099Z,3595
2022-09-03T15:57:58.345Z,2238
2022-09-03T15:59:14.585Z,1710
2022-09-03T16:00:30.831Z,1202
2022-09-03T16:01:47.071Z,2289
2022-09-03T16:03:03.323Z,2236
2022-09-03T16:04:19.545Z,1085
2022-09-03T16:05:35.779Z,2521
2022-09-03T16:06:52.028Z,6000
2022-09-03T16:08:08.274Z,6021
2022-09-03T16:09:24.497Z,8699
2022-09-03T16:10:40.743Z,3272
2022-09-03T16:11:56.983Z,1709
2022-09-03T16:13:12.241Z,1570
2022-09-03T16:14:28.471Z,1458
2022-09-03T16:15:44.718Z,862
2022-09-03T16:17:00.952Z,1758
2022-09-03T16:18:17.205Z,5061
2022-09-03T16:19:33.439Z,4995
2022-09-03T16:20:49.678Z,4783
2022-09-03T16:22:05.928Z,4634
2022-09-03T16:23:22.156Z,4306
2022-09-03T16:24:38.401Z,3999
2022-09-03T16:25:54.633Z,3817
2022-09-03T16:27:10.878Z,3463
2022-09-03T16:28:27.113Z,3379
2022-09-03T16:29:42.000Z,2266
2022-09-03T16:30:58.611Z,1919
2022-09-03T16:32:14.842Z,1513
2022-09-03T16:33:31.089Z,1600
2022-09-03T16:34:47.324Z,1852
2022-09-03T16:36:03.581Z,1780
2022-09-03T16:37:19.819Z,1816
2022-09-03T16:38:36.044Z,1562
2022-09-03T16:39:52.292Z,1960
2022-09-03T16:41:08.525Z,865
2022-09-03T16:42:24.770Z,786
2022-09-03T16:43:40.996Z,601
2022-09-03T16:44:57.240Z,268
2022-09-03T16:46:12.511Z,802
2022-09-03T16:47:28.751Z,312
2022-09-03T16:48:44.981Z,391
2022-09-03T16:50:01.209Z,481
2022-09-03T16:51:17.456Z,559
2022-09-03T16:52:33.702Z,1946
2022-09-03T16:53:49.937Z,538
2022-09-03T16:55:06.166Z,598
2022-09-03T16:56:22.425Z,1316
2022-09-03T16:57:38.641Z,266
2022-09-03T16:58:54.883Z,357
2022-09-03T17:00:11.134Z,452
2022-09-03T17:01:27.363Z,498
2022-09-03T17:02:42.624Z,597
2022-09-03T17:03:58.870Z,709
2022-09-03T17:05:15.106Z,1417
2022-09-03T17:06:31.332Z,1458
2022-09-03T17:07:47.580Z,305
2022-09-03T17:09:03.826Z,427
2022-09-03T17:10:20.064Z,222
2022-09-03T17:11:36.298Z,328
2022-09-03T17:12:52.538Z,326
2022-09-03T17:14:08.784Z,269
2022-09-03T17:15:25.004Z,287
2022-09-03T17:16:41.239Z,350
2022-09-03T17:17:57.488Z,324
2022-09-03T17:19:12.741Z,266
2022-09-03T17:20:28.981Z,250
2022-09-03T17:21:45.220Z,241
2022-09-03T17:23:01.459Z,233
2022-09-03T17:24:17.702Z,224
2022-09-03T17:25:33.927Z,214
2022-09-03T17:26:50.165Z,199
2022-09-03T17:28:06.424Z,187
2022-09-03T17:29:22.656Z,177
2022-09-03T17:30:38.887Z,173
2022-09-03T17:31:55.127Z,151
2022-09-03T17:33:11.361Z,135
2022-09-03T17:34:27.608Z,131
2022-09-03T17:35:42.863Z,126
2022-09-03T17:36:59.097Z,119